sensor_id;sensor_type;location;lat;lon;timestamp;temperature;humidity
69679;DHT22;56915;52.046;4.854;2022-11-12T00:00:56;5.00;99.90
69679;DHT22;56915;52.046;4.854;2022-11-12T00:03:25;5.00;99.90
69679;DHT22;56915;52.046;4.854;2022-11-12T00:05:52;4.90;99.90
69679;DHT22;56915;52.046;4.854;2022-11-12T00:08:19;4.90;99.90
69679;DHT22;56915;52.046;4.854;2022-11-12T00:10:46;4.80;99.90
69679;DHT22;56915;52.046;4.854;2022-11-12T00:13:13;4.70;99.90
69679;DHT22;56915;52.046;4.854;2022-11-12T00:15:40;4.70;99.90
69679;DHT22;56915;52.046;4.854;2022-11-12T00:18:07;4.70;99.90
69679;DHT22;56915;52.046;4.854;2022-11-12T00:20:34;4.70;99.90
69679;DHT22;56915;52.046;4.854;2022-11-12T00:23:01;4.60;99.90
69679;DHT22;56915;52.046;4.854;2022-11-12T00:25:28;4.60;99.90
69679;DHT22;56915;52.046;4.854;2022-11-12T00:28:06;4.60;99.90
69679;DHT22;56915;52.046;4.854;2022-11-12T00:30:33;4.60;99.90
69679;DHT22;56915;52.046;4.854;2022-11-12T00:33:03;4.50;99.90
69679;DHT22;56915;52.046;4.854;2022-11-12T00:35:31;4.50;99.90
69679;DHT22;56915;52.046;4.854;2022-11-12T00:37:58;4.50;99.90
69679;DHT22;56915;52.046;4.854;2022-11-12T00:40:26;4.50;99.90
69679;DHT22;56915;52.046;4.854;2022-11-12T00:42:54;4.50;99.90
69679;DHT22;56915;52.046;4.854;2022-11-12T00:45:21;4.60;99.90
69679;DHT22;56915;52.046;4.854;2022-11-12T00:47:48;4.60;99.90
69679;DHT22;56915;52.046;4.854;2022-11-12T00:50:15;4.80;99.90
69679;DHT22;56915;52.046;4.854;2022-11-12T00:52:42;4.90;99.90
69679;DHT22;56915;52.046;4.854;2022-11-12T00:55:09;5.10;99.90
69679;DHT22;56915;52.046;4.854;2022-11-12T00:57:36;5.20;99.90
69679;DHT22;56915;52.046;4.854;2022-11-12T01:00:05;5.40;99.90
69679;DHT22;56915;52.046;4.854;2022-11-12T01:02:32;5.50;99.90
69679;DHT22;56915;52.046;4.854;2022-11-12T01:05:06;5.70;99.90
69679;DHT22;56915;52.046;4.854;2022-11-12T01:07:33;5.80;99.90
69679;DHT22;56915;52.046;4.854;2022-11-12T01:10:00;5.90;99.90
69679;DHT22;56915;52.046;4.854;2022-11-12T01:12:30;6.00;99.90
69679;DHT22;56915;52.046;4.854;2022-11-12T01:14:57;6.10;99.90
69679;DHT22;56915;52.046;4.854;2022-11-12T01:17:24;6.20;99.90
69679;DHT22;56915;52.046;4.854;2022-11-12T01:19:50;6.20;99.90
69679;DHT22;56915;52.046;4.854;2022-11-12T01:22:17;6.30;99.90
69679;DHT22;56915;52.046;4.854;2022-11-12T01:24:44;6.30;99.90
69679;DHT22;56915;52.046;4.854;2022-11-12T01:27:10;6.40;99.90
69679;DHT22;56915;52.046;4.854;2022-11-12T01:29:37;6.50;99.90
69679;DHT22;56915;52.046;4.854;2022-11-12T01:32:04;6.60;99.90
69679;DHT22;56915;52.046;4.854;2022-11-12T01:34:31;6.70;99.90
69679;DHT22;56915;52.046;4.854;2022-11-12T01:36:58;6.80;99.90
69679;DHT22;56915;52.046;4.854;2022-11-12T01:39:25;6.90;99.90
69679;DHT22;56915;52.046;4.854;2022-11-12T01:41:51;7.00;99.90
69679;DHT22;56915;52.046;4.854;2022-11-12T01:44:20;7.10;99.90
69679;DHT22;56915;52.046;4.854;2022-11-12T01:46:57;7.20;99.90
69679;DHT22;56915;52.046;4.854;2022-11-12T01:49:42;7.30;99.90
69679;DHT22;56915;52.046;4.854;2022-11-12T01:52:35;7.40;99.90
69679;DHT22;56915;52.046;4.854;2022-11-12T01:55:10;7.40;99.90
69679;DHT22;56915;52.046;4.854;2022-11-12T01:57:48;7.50;99.90
69679;DHT22;56915;52.046;4.854;2022-11-12T02:00:17;7.60;99.90
69679;DHT22;56915;52.046;4.854;2022-11-12T02:02:58;7.60;99.90
69679;DHT22;56915;52.046;4.854;2022-11-12T02:05:28;7.60;99.90
69679;DHT22;56915;52.046;4.854;2022-11-12T02:07:57;7.70;99.90
69679;DHT22;56915;52.046;4.854;2022-11-12T02:10:26;7.70;99.90
69679;DHT22;56915;52.046;4.854;2022-11-12T02:12:53;7.70;99.90
69679;DHT22;56915;52.046;4.854;2022-11-12T02:15:40;7.80;99.90
69679;DHT22;56915;52.046;4.854;2022-11-12T02:18:07;7.80;99.90
69679;DHT22;56915;52.046;4.854;2022-11-12T02:20:35;7.90;99.90
69679;DHT22;56915;52.046;4.854;2022-11-12T02:23:03;7.90;99.90
69679;DHT22;56915;52.046;4.854;2022-11-12T02:25:30;7.90;99.90
69679;DHT22;56915;52.046;4.854;2022-11-12T02:27:57;8.00;99.90
69679;DHT22;56915;52.046;4.854;2022-11-12T02:30:34;8.00;99.90
69679;DHT22;56915;52.046;4.854;2022-11-12T02:33:01;8.00;99.90
69679;DHT22;56915;52.046;4.854;2022-11-12T02:35:28;8.10;99.90
69679;DHT22;56915;52.046;4.854;2022-11-12T02:37:55;8.10;99.90
69679;DHT22;56915;52.046;4.854;2022-11-12T02:40:22;8.10;99.90
69679;DHT22;56915;52.046;4.854;2022-11-12T02:42:49;8.20;99.90
69679;DHT22;56915;52.046;4.854;2022-11-12T02:45:16;8.20;99.90
69679;DHT22;56915;52.046;4.854;2022-11-12T02:47:44;8.20;99.90
69679;DHT22;56915;52.046;4.854;2022-11-12T02:50:11;8.20;99.90
69679;DHT22;56915;52.046;4.854;2022-11-12T02:52:38;8.30;99.90
69679;DHT22;56915;52.046;4.854;2022-11-12T02:55:09;8.30;99.90
69679;DHT22;56915;52.046;4.854;2022-11-12T02:57:37;8.30;99.90
69679;DHT22;56915;52.046;4.854;2022-11-12T03:00:06;8.40;99.90
69679;DHT22;56915;52.046;4.854;2022-11-12T03:02:33;8.40;99.90
69679;DHT22;56915;52.046;4.854;2022-11-12T03:05:00;8.40;99.90
69679;DHT22;56915;52.046;4.854;2022-11-12T03:07:27;8.40;99.90
69679;DHT22;56915;52.046;4.854;2022-11-12T03:09:53;8.50;99.90
69679;DHT22;56915;52.046;4.854;2022-11-12T03:12:20;8.50;99.90
69679;DHT22;56915;52.046;4.854;2022-11-12T03:14:47;8.50;99.90
69679;DHT22;56915;52.046;4.854;2022-11-12T03:17:14;8.50;99.90
69679;DHT22;56915;52.046;4.854;2022-11-12T03:19:40;8.40;99.90
69679;DHT22;56915;52.046;4.854;2022-11-12T03:22:07;8.40;99.90
69679;DHT22;56915;52.046;4.854;2022-11-12T03:24:34;8.40;99.90
69679;DHT22;56915;52.046;4.854;2022-11-12T03:27:01;8.40;99.90
69679;DHT22;56915;52.046;4.854;2022-11-12T03:29:27;8.40;99.90
69679;DHT22;56915;52.046;4.854;2022-11-12T03:31:54;8.40;99.90
69679;DHT22;56915;52.046;4.854;2022-11-12T03:34:21;8.40;99.90
69679;DHT22;56915;52.046;4.854;2022-11-12T03:36:48;8.40;99.90
69679;DHT22;56915;52.046;4.854;2022-11-12T03:39:14;8.40;99.90
69679;DHT22;56915;52.046;4.854;2022-11-12T03:41:41;8.40;99.90
69679;DHT22;56915;52.046;4.854;2022-11-12T03:44:08;8.40;99.90
69679;DHT22;56915;52.046;4.854;2022-11-12T03:46:34;8.40;99.90
69679;DHT22;56915;52.046;4.854;2022-11-12T03:49:08;8.30;99.90
69679;DHT22;56915;52.046;4.854;2022-11-12T03:51:35;8.30;99.90
69679;DHT22;56915;52.046;4.854;2022-11-12T03:54:01;8.30;99.90
69679;DHT22;56915;52.046;4.854;2022-11-12T03:56:28;8.20;99.90
69679;DHT22;56915;52.046;4.854;2022-11-12T03:58:55;8.20;99.90
69679;DHT22;56915;52.046;4.854;2022-11-12T04:01:21;8.10;99.90
69679;DHT22;56915;52.046;4.854;2022-11-12T04:03:48;8.00;99.90
69679;DHT22;56915;52.046;4.854;2022-11-12T04:06:15;7.80;99.90
69679;DHT22;56915;52.046;4.854;2022-11-12T04:09:00;7.50;99.90
69679;DHT22;56915;52.046;4.854;2022-11-12T04:11:27;7.30;99.90
69679;DHT22;56915;52.046;4.854;2022-11-12T04:13:54;7.10;99.90
69679;DHT22;56915;52.046;4.854;2022-11-12T04:16:21;6.80;99.90
69679;DHT22;56915;52.046;4.854;2022-11-12T04:19:10;6.60;99.90
69679;DHT22;56915;52.046;4.854;2022-11-12T04:24:34;6.30;99.90
69679;DHT22;56915;52.046;4.854;2022-11-12T04:27:33;6.10;99.90
69679;DHT22;56915;52.046;4.854;2022-11-12T04:30:00;6.00;99.90
69679;DHT22;56915;52.046;4.854;2022-11-12T04:32:53;5.90;99.90
69679;DHT22;56915;52.046;4.854;2022-11-12T04:35:22;5.80;99.90
69679;DHT22;56915;52.046;4.854;2022-11-12T04:37:49;5.70;99.90
69679;DHT22;56915;52.046;4.854;2022-11-12T04:40:20;5.60;99.90
69679;DHT22;56915;52.046;4.854;2022-11-12T04:43:09;5.50;99.90
69679;DHT22;56915;52.046;4.854;2022-11-12T04:45:55;5.40;99.90
69679;DHT22;56915;52.046;4.854;2022-11-12T04:48:23;5.40;99.90
69679;DHT22;56915;52.046;4.854;2022-11-12T04:50:56;5.30;99.90
69679;DHT22;56915;52.046;4.854;2022-11-12T04:53:24;5.20;99.90
69679;DHT22;56915;52.046;4.854;2022-11-12T04:55:52;5.10;99.90
69679;DHT22;56915;52.046;4.854;2022-11-12T04:58:20;5.00;99.90
69679;DHT22;56915;52.046;4.854;2022-11-12T05:00:48;4.90;99.90
69679;DHT22;56915;52.046;4.854;2022-11-12T05:03:16;4.80;99.90
69679;DHT22;56915;52.046;4.854;2022-11-12T05:05:42;4.80;99.90
69679;DHT22;56915;52.046;4.854;2022-11-12T05:08:09;4.70;99.90
69679;DHT22;56915;52.046;4.854;2022-11-12T05:10:36;4.70;99.90
69679;DHT22;56915;52.046;4.854;2022-11-12T05:13:03;4.60;99.90
69679;DHT22;56915;52.046;4.854;2022-11-12T05:15:30;4.50;99.90
69679;DHT22;56915;52.046;4.854;2022-11-12T05:17:56;4.40;99.90
69679;DHT22;56915;52.046;4.854;2022-11-12T05:20:23;4.40;99.90
69679;DHT22;56915;52.046;4.854;2022-11-12T05:22:50;4.30;99.90
69679;DHT22;56915;52.046;4.854;2022-11-12T05:25:34;4.30;99.90
69679;DHT22;56915;52.046;4.854;2022-11-12T05:28:01;4.20;99.90
69679;DHT22;56915;52.046;4.854;2022-11-12T05:30:27;4.20;99.90
69679;DHT22;56915;52.046;4.854;2022-11-12T05:32:54;4.20;99.90
69679;DHT22;56915;52.046;4.854;2022-11-12T05:35:21;4.20;99.90
69679;DHT22;56915;52.046;4.854;2022-11-12T05:37:48;4.20;99.90
69679;DHT22;56915;52.046;4.854;2022-11-12T05:40:14;4.20;99.90
69679;DHT22;56915;52.046;4.854;2022-11-12T05:42:41;4.10;99.90
69679;DHT22;56915;52.046;4.854;2022-11-12T05:45:08;4.10;99.90
69679;DHT22;56915;52.046;4.854;2022-11-12T05:47:35;4.10;99.90
69679;DHT22;56915;52.046;4.854;2022-11-12T05:50:02;4.00;99.90
69679;DHT22;56915;52.046;4.854;2022-11-12T05:52:29;4.00;99.90
69679;DHT22;56915;52.046;4.854;2022-11-12T05:54:55;3.90;99.90
69679;DHT22;56915;52.046;4.854;2022-11-12T05:57:22;3.90;99.90
69679;DHT22;56915;52.046;4.854;2022-11-12T05:59:49;3.90;99.90
69679;DHT22;56915;52.046;4.854;2022-11-12T06:02:15;3.80;99.90
69679;DHT22;56915;52.046;4.854;2022-11-12T06:04:42;3.80;99.90
69679;DHT22;56915;52.046;4.854;2022-11-12T06:07:09;3.80;99.90
69679;DHT22;56915;52.046;4.854;2022-11-12T06:09:36;3.80;99.90
69679;DHT22;56915;52.046;4.854;2022-11-12T06:12:03;3.80;99.90
69679;DHT22;56915;52.046;4.854;2022-11-12T06:14:32;3.80;99.90
69679;DHT22;56915;52.046;4.854;2022-11-12T06:16:58;3.70;99.90
69679;DHT22;56915;52.046;4.854;2022-11-12T06:19:25;3.70;99.90
69679;DHT22;56915;52.046;4.854;2022-11-12T06:21:52;3.70;99.90
69679;DHT22;56915;52.046;4.854;2022-11-12T06:24:19;3.60;99.90
69679;DHT22;56915;52.046;4.854;2022-11-12T06:26:46;3.60;99.90
69679;DHT22;56915;52.046;4.854;2022-11-12T06:29:12;3.60;99.90
69679;DHT22;56915;52.046;4.854;2022-11-12T06:31:39;3.60;99.90
69679;DHT22;56915;52.046;4.854;2022-11-12T06:34:06;3.60;99.90
69679;DHT22;56915;52.046;4.854;2022-11-12T06:36:32;3.60;99.90
69679;DHT22;56915;52.046;4.854;2022-11-12T06:39:00;3.50;99.90
69679;DHT22;56915;52.046;4.854;2022-11-12T06:41:27;3.50;99.90
69679;DHT22;56915;52.046;4.854;2022-11-12T06:43:53;3.50;99.90
69679;DHT22;56915;52.046;4.854;2022-11-12T06:46:20;3.50;99.90
69679;DHT22;56915;52.046;4.854;2022-11-12T06:48:47;3.50;99.90
69679;DHT22;56915;52.046;4.854;2022-11-12T06:51:19;3.50;99.90
69679;DHT22;56915;52.046;4.854;2022-11-12T06:53:46;3.40;99.90
69679;DHT22;56915;52.046;4.854;2022-11-12T06:56:13;3.50;99.90
69679;DHT22;56915;52.046;4.854;2022-11-12T06:58:40;3.50;99.90
69679;DHT22;56915;52.046;4.854;2022-11-12T07:01:13;3.40;99.90
69679;DHT22;56915;52.046;4.854;2022-11-12T07:03:40;3.40;99.90
69679;DHT22;56915;52.046;4.854;2022-11-12T07:06:10;3.50;99.90
69679;DHT22;56915;52.046;4.854;2022-11-12T07:08:37;3.50;99.90
69679;DHT22;56915;52.046;4.854;2022-11-12T07:11:05;3.50;99.90
69679;DHT22;56915;52.046;4.854;2022-11-12T07:13:33;3.60;99.90
69679;DHT22;56915;52.046;4.854;2022-11-12T07:16:00;3.60;99.90
69679;DHT22;56915;52.046;4.854;2022-11-12T07:18:27;3.60;99.90
69679;DHT22;56915;52.046;4.854;2022-11-12T07:21:06;3.70;99.90
69679;DHT22;56915;52.046;4.854;2022-11-12T07:23:34;3.70;99.90
69679;DHT22;56915;52.046;4.854;2022-11-12T07:26:03;3.70;99.90
69679;DHT22;56915;52.046;4.854;2022-11-12T07:28:30;3.70;99.90
69679;DHT22;56915;52.046;4.854;2022-11-12T07:30:58;3.80;99.90
69679;DHT22;56915;52.046;4.854;2022-11-12T07:33:26;3.80;99.90
69679;DHT22;56915;52.046;4.854;2022-11-12T07:36:04;3.90;99.90
69679;DHT22;56915;52.046;4.854;2022-11-12T07:38:34;4.00;99.90
69679;DHT22;56915;52.046;4.854;2022-11-12T07:43:35;4.20;99.90
69679;DHT22;56915;52.046;4.854;2022-11-12T07:46:23;4.30;99.90
69679;DHT22;56915;52.046;4.854;2022-11-12T07:48:51;4.40;99.90
69679;DHT22;56915;52.046;4.854;2022-11-12T07:51:22;4.50;99.90
69679;DHT22;56915;52.046;4.854;2022-11-12T07:53:52;4.60;99.90
69679;DHT22;56915;52.046;4.854;2022-11-12T07:56:25;4.70;99.90
69679;DHT22;56915;52.046;4.854;2022-11-12T07:58:52;4.70;99.90
69679;DHT22;56915;52.046;4.854;2022-11-12T08:01:39;4.80;99.90
69679;DHT22;56915;52.046;4.854;2022-11-12T08:04:08;4.90;99.90
69679;DHT22;56915;52.046;4.854;2022-11-12T08:06:35;5.00;99.90
69679;DHT22;56915;52.046;4.854;2022-11-12T08:09:06;5.10;99.90
69679;DHT22;56915;52.046;4.854;2022-11-12T08:11:33;5.20;99.90
69679;DHT22;56915;52.046;4.854;2022-11-12T08:14:00;5.30;99.90
69679;DHT22;56915;52.046;4.854;2022-11-12T08:16:27;5.40;99.90
69679;DHT22;56915;52.046;4.854;2022-11-12T08:18:54;5.50;99.90
69679;DHT22;56915;52.046;4.854;2022-11-12T08:21:21;5.60;99.90
69679;DHT22;56915;52.046;4.854;2022-11-12T08:23:47;5.70;99.90
69679;DHT22;56915;52.046;4.854;2022-11-12T08:26:18;5.80;99.90
69679;DHT22;56915;52.046;4.854;2022-11-12T08:28:45;6.00;99.90
69679;DHT22;56915;52.046;4.854;2022-11-12T08:31:17;6.10;99.90
69679;DHT22;56915;52.046;4.854;2022-11-12T08:33:44;6.30;99.90
69679;DHT22;56915;52.046;4.854;2022-11-12T08:36:13;6.40;99.90
69679;DHT22;56915;52.046;4.854;2022-11-12T08:38:41;6.50;99.90
69679;DHT22;56915;52.046;4.854;2022-11-12T08:41:10;6.60;99.90
69679;DHT22;56915;52.046;4.854;2022-11-12T08:43:38;6.70;99.90
69679;DHT22;56915;52.046;4.854;2022-11-12T08:46:05;6.90;99.90
69679;DHT22;56915;52.046;4.854;2022-11-12T08:48:33;7.00;99.90
69679;DHT22;56915;52.046;4.854;2022-11-12T08:51:02;7.10;99.90
69679;DHT22;56915;52.046;4.854;2022-11-12T08:53:29;7.20;99.90
69679;DHT22;56915;52.046;4.854;2022-11-12T08:55:56;7.30;99.90
69679;DHT22;56915;52.046;4.854;2022-11-12T08:58:24;7.50;99.90
69679;DHT22;56915;52.046;4.854;2022-11-12T09:00:53;7.70;99.90
69679;DHT22;56915;52.046;4.854;2022-11-12T09:03:21;7.80;99.90
69679;DHT22;56915;52.046;4.854;2022-11-12T09:05:49;8.00;99.90
69679;DHT22;56915;52.046;4.854;2022-11-12T09:08:19;8.10;99.90
69679;DHT22;56915;52.046;4.854;2022-11-12T09:10:47;8.20;99.90
69679;DHT22;56915;52.046;4.854;2022-11-12T09:13:16;8.30;99.90
69679;DHT22;56915;52.046;4.854;2022-11-12T09:15:45;8.40;99.90
69679;DHT22;56915;52.046;4.854;2022-11-12T09:18:14;8.50;99.90
69679;DHT22;56915;52.046;4.854;2022-11-12T09:20:41;8.50;99.90
69679;DHT22;56915;52.046;4.854;2022-11-12T09:23:11;8.60;99.90
69679;DHT22;56915;52.046;4.854;2022-11-12T09:25:39;8.70;99.90
69679;DHT22;56915;52.046;4.854;2022-11-12T09:28:08;8.80;99.90
69679;DHT22;56915;52.046;4.854;2022-11-12T09:30:37;8.80;99.90
69679;DHT22;56915;52.046;4.854;2022-11-12T09:33:07;8.90;99.90
69679;DHT22;56915;52.046;4.854;2022-11-12T09:35:34;8.90;99.90
69679;DHT22;56915;52.046;4.854;2022-11-12T09:38:01;9.00;99.90
69679;DHT22;56915;52.046;4.854;2022-11-12T09:43:23;9.20;99.90
69679;DHT22;56915;52.046;4.854;2022-11-12T09:45:52;9.40;99.90
69679;DHT22;56915;52.046;4.854;2022-11-12T09:48:45;9.40;99.90
69679;DHT22;56915;52.046;4.854;2022-11-12T09:51:26;9.50;99.90
69679;DHT22;56915;52.046;4.854;2022-11-12T09:53:56;9.60;99.90
69679;DHT22;56915;52.046;4.854;2022-11-12T09:56:24;9.70;99.90
69679;DHT22;56915;52.046;4.854;2022-11-12T09:58:52;9.70;99.90
69679;DHT22;56915;52.046;4.854;2022-11-12T10:01:41;9.80;99.90
69679;DHT22;56915;52.046;4.854;2022-11-12T10:07:11;10.00;99.90
69679;DHT22;56915;52.046;4.854;2022-11-12T10:09:58;10.10;99.90
69679;DHT22;56915;52.046;4.854;2022-11-12T10:12:49;10.20;99.90
69679;DHT22;56915;52.046;4.854;2022-11-12T10:15:48;10.20;99.90
69679;DHT22;56915;52.046;4.854;2022-11-12T10:21:12;10.50;99.90
69679;DHT22;56915;52.046;4.854;2022-11-12T10:23:44;10.60;99.90
69679;DHT22;56915;52.046;4.854;2022-11-12T10:26:13;10.70;99.90
69679;DHT22;56915;52.046;4.854;2022-11-12T10:28:48;10.80;99.90
69679;DHT22;56915;52.046;4.854;2022-11-12T10:31:18;10.90;99.90
69679;DHT22;56915;52.046;4.854;2022-11-12T10:33:45;11.00;99.90
69679;DHT22;56915;52.046;4.854;2022-11-12T10:36:29;11.10;99.90
69679;DHT22;56915;52.046;4.854;2022-11-12T10:38:56;11.10;99.90
69679;DHT22;56915;52.046;4.854;2022-11-12T10:41:28;11.20;99.90
69679;DHT22;56915;52.046;4.854;2022-11-12T10:43:58;11.30;99.90
69679;DHT22;56915;52.046;4.854;2022-11-12T10:46:31;11.40;99.90
69679;DHT22;56915;52.046;4.854;2022-11-12T10:49:23;11.50;99.90
69679;DHT22;56915;52.046;4.854;2022-11-12T10:51:57;11.50;99.90
69679;DHT22;56915;52.046;4.854;2022-11-12T10:54:29;11.70;99.90
69679;DHT22;56915;52.046;4.854;2022-11-12T10:57:26;11.80;99.90
69679;DHT22;56915;52.046;4.854;2022-11-12T11:02:51;11.90;99.90
69679;DHT22;56915;52.046;4.854;2022-11-12T11:05:34;12.00;99.90
69679;DHT22;56915;52.046;4.854;2022-11-12T11:08:02;12.10;99.90
69679;DHT22;56915;52.046;4.854;2022-11-12T11:10:32;12.10;99.90
69679;DHT22;56915;52.046;4.854;2022-11-12T11:13:23;12.20;99.90
69679;DHT22;56915;52.046;4.854;2022-11-12T11:16:03;12.30;99.90
69679;DHT22;56915;52.046;4.854;2022-11-12T11:18:33;12.40;99.90
69679;DHT22;56915;52.046;4.854;2022-11-12T11:27:24;12.60;98.80
69679;DHT22;56915;52.046;4.854;2022-11-12T11:29:59;12.70;98.80
69679;DHT22;56915;52.046;4.854;2022-11-12T11:32:46;12.80;98.80
69679;DHT22;56915;52.046;4.854;2022-11-12T11:38:41;13.00;98.30
69679;DHT22;56915;52.046;4.854;2022-11-12T11:44:28;13.10;97.40
69679;DHT22;56915;52.046;4.854;2022-11-12T11:47:44;13.20;97.10
69679;DHT22;56915;52.046;4.854;2022-11-12T11:50:37;13.30;96.90
69679;DHT22;56915;52.046;4.854;2022-11-12T11:53:29;13.40;96.50
69679;DHT22;56915;52.046;4.854;2022-11-12T11:59:19;13.50;95.40
69679;DHT22;56915;52.046;4.854;2022-11-12T12:05:01;13.60;94.80
69679;DHT22;56915;52.046;4.854;2022-11-12T12:07:50;13.70;94.70
69679;DHT22;56915;52.046;4.854;2022-11-12T12:10:29;13.70;93.70
69679;DHT22;56915;52.046;4.854;2022-11-12T12:16:29;13.80;91.80
69679;DHT22;56915;52.046;4.854;2022-11-12T12:21:47;13.90;91.90
69679;DHT22;56915;52.046;4.854;2022-11-12T12:24:31;14.00;91.60
69679;DHT22;56915;52.046;4.854;2022-11-12T12:27:15;14.00;90.90
69679;DHT22;56915;52.046;4.854;2022-11-12T12:29:55;14.00;90.50
69679;DHT22;56915;52.046;4.854;2022-11-12T12:32:31;14.00;90.50
69679;DHT22;56915;52.046;4.854;2022-11-12T12:37:45;14.00;90.00
69679;DHT22;56915;52.046;4.854;2022-11-12T12:40:21;14.00;87.40
69679;DHT22;56915;52.046;4.854;2022-11-12T12:45:41;14.00;88.50
69679;DHT22;56915;52.046;4.854;2022-11-12T12:48:30;14.10;88.80
69679;DHT22;56915;52.046;4.854;2022-11-12T12:50:59;14.10;88.20
69679;DHT22;56915;52.046;4.854;2022-11-12T12:53:33;14.20;87.60
69679;DHT22;56915;52.046;4.854;2022-11-12T12:58:45;14.20;86.40
69679;DHT22;56915;52.046;4.854;2022-11-12T13:04:05;14.30;85.20
69679;DHT22;56915;52.046;4.854;2022-11-12T13:11:45;14.30;84.40
69679;DHT22;56915;52.046;4.854;2022-11-12T13:28:04;14.40;81.70
69679;DHT22;56915;52.046;4.854;2022-11-12T13:32:58;14.40;81.50
69679;DHT22;56915;52.046;4.854;2022-11-12T13:35:34;14.30;81.50
69679;DHT22;56915;52.046;4.854;2022-11-12T13:38:12;14.40;81.50
69679;DHT22;56915;52.046;4.854;2022-11-12T13:41:06;14.40;81.60
69679;DHT22;56915;52.046;4.854;2022-11-12T13:43:42;14.40;81.60
69679;DHT22;56915;52.046;4.854;2022-11-12T13:48:45;14.40;81.50
69679;DHT22;56915;52.046;4.854;2022-11-12T13:53:55;14.40;81.00
69679;DHT22;56915;52.046;4.854;2022-11-12T13:56:29;14.40;81.00
69679;DHT22;56915;52.046;4.854;2022-11-12T13:59:16;14.40;81.40
69679;DHT22;56915;52.046;4.854;2022-11-12T14:01:44;14.40;81.90
69679;DHT22;56915;52.046;4.854;2022-11-12T14:04:18;14.30;82.40
69679;DHT22;56915;52.046;4.854;2022-11-12T14:15:55;14.30;83.90
69679;DHT22;56915;52.046;4.854;2022-11-12T14:21:04;14.20;84.10
69679;DHT22;56915;52.046;4.854;2022-11-12T14:23:36;14.20;83.90
69679;DHT22;56915;52.046;4.854;2022-11-12T14:26:03;14.10;83.90
69679;DHT22;56915;52.046;4.854;2022-11-12T14:28:33;14.10;84.10
69679;DHT22;56915;52.046;4.854;2022-11-12T14:31:01;14.10;84.40
69679;DHT22;56915;52.046;4.854;2022-11-12T14:33:29;14.00;84.50
69679;DHT22;56915;52.046;4.854;2022-11-12T14:36:03;14.00;84.40
69679;DHT22;56915;52.046;4.854;2022-11-12T14:38:33;14.00;84.70
69679;DHT22;56915;52.046;4.854;2022-11-12T14:41:03;14.00;84.90
69679;DHT22;56915;52.046;4.854;2022-11-12T14:43:43;13.90;84.80
69679;DHT22;56915;52.046;4.854;2022-11-12T14:46:38;13.90;84.20
69679;DHT22;56915;52.046;4.854;2022-11-12T14:49:32;13.80;83.60
69679;DHT22;56915;52.046;4.854;2022-11-12T14:52:10;13.70;83.50
69679;DHT22;56915;52.046;4.854;2022-11-12T14:54:47;13.70;83.60
69679;DHT22;56915;52.046;4.854;2022-11-12T14:57:26;13.60;83.90
69679;DHT22;56915;52.046;4.854;2022-11-12T14:59:55;13.50;84.20
69679;DHT22;56915;52.046;4.854;2022-11-12T15:02:28;13.50;84.70
69679;DHT22;56915;52.046;4.854;2022-11-12T15:05:19;13.40;85.20
69679;DHT22;56915;52.046;4.854;2022-11-12T15:08:10;13.30;85.70
69679;DHT22;56915;52.046;4.854;2022-11-12T15:10:43;13.20;86.10
69679;DHT22;56915;52.046;4.854;2022-11-12T15:13:16;13.10;86.70
69679;DHT22;56915;52.046;4.854;2022-11-12T15:15:52;13.00;87.70
69679;DHT22;56915;52.046;4.854;2022-11-12T15:18:23;12.90;88.70
69679;DHT22;56915;52.046;4.854;2022-11-12T15:24:18;12.80;90.30
69679;DHT22;56915;52.046;4.854;2022-11-12T15:26:47;12.60;90.60
69679;DHT22;56915;52.046;4.854;2022-11-12T15:35:40;12.30;91.40
69679;DHT22;56915;52.046;4.854;2022-11-12T15:38:33;12.30;91.70
69679;DHT22;56915;52.046;4.854;2022-11-12T15:41:01;12.20;92.00
69679;DHT22;56915;52.046;4.854;2022-11-12T15:43:33;12.10;92.10
69679;DHT22;56915;52.046;4.854;2022-11-12T15:46:01;12.00;92.50
69679;DHT22;56915;52.046;4.854;2022-11-12T15:48:27;11.90;92.90
69679;DHT22;56915;52.046;4.854;2022-11-12T15:50:54;11.70;93.10
69679;DHT22;56915;52.046;4.854;2022-11-12T15:53:21;11.60;93.50
69679;DHT22;56915;52.046;4.854;2022-11-12T15:55:48;11.50;93.90
69679;DHT22;56915;52.046;4.854;2022-11-12T15:58:19;11.40;94.30
69679;DHT22;56915;52.046;4.854;2022-11-12T16:00:52;11.20;94.80
69679;DHT22;56915;52.046;4.854;2022-11-12T16:03:21;11.10;95.10
69679;DHT22;56915;52.046;4.854;2022-11-12T16:05:48;11.10;95.40
69679;DHT22;56915;52.046;4.854;2022-11-12T16:08:14;11.00;95.80
69679;DHT22;56915;52.046;4.854;2022-11-12T16:10:44;10.90;96.10
69679;DHT22;56915;52.046;4.854;2022-11-12T16:13:23;10.80;96.40
69679;DHT22;56915;52.046;4.854;2022-11-12T16:15:52;10.70;96.60
69679;DHT22;56915;52.046;4.854;2022-11-12T16:18:19;10.60;96.70
69679;DHT22;56915;52.046;4.854;2022-11-12T16:20:47;10.50;97.00
69679;DHT22;56915;52.046;4.854;2022-11-12T16:23:15;10.40;97.30
69679;DHT22;56915;52.046;4.854;2022-11-12T16:25:42;10.40;97.40
69679;DHT22;56915;52.046;4.854;2022-11-12T16:28:16;10.30;97.60
69679;DHT22;56915;52.046;4.854;2022-11-12T16:30:45;10.20;97.60
69679;DHT22;56915;52.046;4.854;2022-11-12T16:33:12;10.10;97.60
69679;DHT22;56915;52.046;4.854;2022-11-12T16:35:39;10.00;97.90
69679;DHT22;56915;52.046;4.854;2022-11-12T16:38:14;9.90;98.30
69679;DHT22;56915;52.046;4.854;2022-11-12T16:40:43;9.80;98.60
69679;DHT22;56915;52.046;4.854;2022-11-12T16:43:11;9.70;99.00
69679;DHT22;56915;52.046;4.854;2022-11-12T16:45:39;9.60;99.30
69679;DHT22;56915;52.046;4.854;2022-11-12T16:48:16;9.50;99.60
69679;DHT22;56915;52.046;4.854;2022-11-12T16:50:44;9.50;99.90
69679;DHT22;56915;52.046;4.854;2022-11-12T16:53:11;9.40;99.90
69679;DHT22;56915;52.046;4.854;2022-11-12T16:55:38;9.40;99.90
69679;DHT22;56915;52.046;4.854;2022-11-12T16:58:04;9.30;99.90
69679;DHT22;56915;52.046;4.854;2022-11-12T17:00:31;9.20;99.90
69679;DHT22;56915;52.046;4.854;2022-11-12T17:02:58;9.20;99.90
69679;DHT22;56915;52.046;4.854;2022-11-12T17:05:25;9.10;99.90
69679;DHT22;56915;52.046;4.854;2022-11-12T17:07:56;9.10;99.90
69679;DHT22;56915;52.046;4.854;2022-11-12T17:10:23;9.00;99.90
69679;DHT22;56915;52.046;4.854;2022-11-12T17:12:51;9.00;99.90
69679;DHT22;56915;52.046;4.854;2022-11-12T17:15:18;8.90;99.90
69679;DHT22;56915;52.046;4.854;2022-11-12T17:17:45;8.90;99.90
69679;DHT22;56915;52.046;4.854;2022-11-12T17:20:11;8.90;99.90
69679;DHT22;56915;52.046;4.854;2022-11-12T17:22:38;8.90;99.90
69679;DHT22;56915;52.046;4.854;2022-11-12T17:25:06;8.90;99.90
69679;DHT22;56915;52.046;4.854;2022-11-12T17:27:33;8.80;99.90
69679;DHT22;56915;52.046;4.854;2022-11-12T17:30:00;8.80;99.90
69679;DHT22;56915;52.046;4.854;2022-11-12T17:32:27;8.80;99.90
69679;DHT22;56915;52.046;4.854;2022-11-12T17:34:54;8.70;99.90
69679;DHT22;56915;52.046;4.854;2022-11-12T17:37:21;8.70;99.90
69679;DHT22;56915;52.046;4.854;2022-11-12T17:39:47;8.70;99.90
69679;DHT22;56915;52.046;4.854;2022-11-12T17:42:14;8.70;99.90
69679;DHT22;56915;52.046;4.854;2022-11-12T17:44:44;8.60;99.90
69679;DHT22;56915;52.046;4.854;2022-11-12T17:47:11;8.60;99.90